sensor_id;sensor_type;location;lat;lon;timestamp;P1;durP1;ratioP1;P2;durP2;ratioP2
10201;SDS011;5143;42.584;23.164;2023-07-24T00:02:21;15.00;;;10.03;;
10201;SDS011;5143;42.584;23.164;2023-07-24T00:04:48;14.87;;;9.40;;
10201;SDS011;5143;42.584;23.164;2023-07-24T00:07:16;20.03;;;10.27;;
10201;SDS011;5143;42.584;23.164;2023-07-24T00:09:43;21.20;;;10.77;;
10201;SDS011;5143;42.584;23.164;2023-07-24T00:12:10;14.10;;;9.50;;
10201;SDS011;5143;42.584;23.164;2023-07-24T00:14:37;15.13;;;10.63;;
10201;SDS011;5143;42.584;23.164;2023-07-24T00:17:04;16.33;;;10.03;;
10201;SDS011;5143;42.584;23.164;2023-07-24T00:19:31;14.87;;;10.03;;
10201;SDS011;5143;42.584;23.164;2023-07-24T00:21:57;15.63;;;10.10;;
10201;SDS011;5143;42.584;23.164;2023-07-24T00:24:26;15.80;;;10.57;;
10201;SDS011;5143;42.584;23.164;2023-07-24T00:26:53;17.83;;;9.77;;
10201;SDS011;5143;42.584;23.164;2023-07-24T00:29:20;19.67;;;10.50;;
10201;SDS011;5143;42.584;23.164;2023-07-24T00:31:46;13.33;;;10.10;;
10201;SDS011;5143;42.584;23.164;2023-07-24T00:34:13;18.27;;;11.43;;
10201;SDS011;5143;42.584;23.164;2023-07-24T00:36:40;25.60;;;10.90;;
10201;SDS011;5143;42.584;23.164;2023-07-24T00:39:06;14.13;;;10.20;;
10201;SDS011;5143;42.584;23.164;2023-07-24T00:41:35;17.87;;;10.80;;
10201;SDS011;5143;42.584;23.164;2023-07-24T00:44:01;15.70;;;11.10;;
10201;SDS011;5143;42.584;23.164;2023-07-24T00:46:28;17.00;;;11.53;;
10201;SDS011;5143;42.584;23.164;2023-07-24T00:48:57;18.17;;;10.67;;
10201;SDS011;5143;42.584;23.164;2023-07-24T00:51:25;15.00;;;10.13;;
10201;SDS011;5143;42.584;23.164;2023-07-24T00:53:52;15.67;;;10.67;;
10201;SDS011;5143;42.584;23.164;2023-07-24T00:56:20;15.83;;;10.37;;
10201;SDS011;5143;42.584;23.164;2023-07-24T00:58:48;15.97;;;11.03;;
10201;SDS011;5143;42.584;23.164;2023-07-24T01:01:16;17.00;;;11.30;;
10201;SDS011;5143;42.584;23.164;2023-07-24T01:03:45;19.20;;;11.13;;
10201;SDS011;5143;42.584;23.164;2023-07-24T01:06:12;17.67;;;11.67;;
10201;SDS011;5143;42.584;23.164;2023-07-24T01:08:39;16.07;;;11.37;;
10201;SDS011;5143;42.584;23.164;2023-07-24T01:11:07;20.60;;;11.03;;
10201;SDS011;5143;42.584;23.164;2023-07-24T01:13:42;22.80;;;12.10;;
10201;SDS011;5143;42.584;23.164;2023-07-24T01:16:16;19.17;;;12.17;;
10201;SDS011;5143;42.584;23.164;2023-07-24T01:18:45;20.53;;;11.17;;
10201;SDS011;5143;42.584;23.164;2023-07-24T01:21:12;22.53;;;11.43;;
10201;SDS011;5143;42.584;23.164;2023-07-24T01:23:46;16.63;;;10.70;;
10201;SDS011;5143;42.584;23.164;2023-07-24T01:26:24;20.23;;;12.83;;
10201;SDS011;5143;42.584;23.164;2023-07-24T01:28:51;19.33;;;12.13;;
10201;SDS011;5143;42.584;23.164;2023-07-24T01:31:18;16.63;;;11.00;;
10201;SDS011;5143;42.584;23.164;2023-07-24T01:33:45;18.03;;;11.10;;
10201;SDS011;5143;42.584;23.164;2023-07-24T01:36:11;15.07;;;11.17;;
10201;SDS011;5143;42.584;23.164;2023-07-24T01:38:40;19.30;;;11.80;;
10201;SDS011;5143;42.584;23.164;2023-07-24T01:41:08;16.93;;;11.33;;
10201;SDS011;5143;42.584;23.164;2023-07-24T01:43:37;17.57;;;11.70;;
10201;SDS011;5143;42.584;23.164;2023-07-24T01:46:04;18.87;;;11.23;;
10201;SDS011;5143;42.584;23.164;2023-07-24T01:48:30;16.13;;;10.83;;
10201;SDS011;5143;42.584;23.164;2023-07-24T01:50:57;16.07;;;11.20;;
10201;SDS011;5143;42.584;23.164;2023-07-24T01:53:24;17.07;;;11.53;;
10201;SDS011;5143;42.584;23.164;2023-07-24T01:55:50;18.00;;;11.70;;
10201;SDS011;5143;42.584;23.164;2023-07-24T01:58:17;18.17;;;11.27;;
10201;SDS011;5143;42.584;23.164;2023-07-24T02:00:45;19.40;;;10.77;;
10201;SDS011;5143;42.584;23.164;2023-07-24T02:03:12;15.93;;;11.30;;
10201;SDS011;5143;42.584;23.164;2023-07-24T02:05:38;21.10;;;11.00;;
10201;SDS011;5143;42.584;23.164;2023-07-24T02:08:05;14.53;;;10.73;;
10201;SDS011;5143;42.584;23.164;2023-07-24T02:10:32;19.37;;;11.20;;
10201;SDS011;5143;42.584;23.164;2023-07-24T02:12:58;19.13;;;10.67;;
10201;SDS011;5143;42.584;23.164;2023-07-24T02:15:25;19.13;;;11.67;;
10201;SDS011;5143;42.584;23.164;2023-07-24T02:17:53;18.00;;;10.50;;
10201;SDS011;5143;42.584;23.164;2023-07-24T02:20:20;15.70;;;11.07;;
10201;SDS011;5143;42.584;23.164;2023-07-24T02:22:47;18.90;;;10.90;;
10201;SDS011;5143;42.584;23.164;2023-07-24T02:25:13;17.23;;;11.37;;
10201;SDS011;5143;42.584;23.164;2023-07-24T02:27:40;17.80;;;12.33;;
10201;SDS011;5143;42.584;23.164;2023-07-24T02:30:07;17.13;;;10.80;;
10201;SDS011;5143;42.584;23.164;2023-07-24T02:32:34;17.43;;;11.20;;
10201;SDS011;5143;42.584;23.164;2023-07-24T02:35:03;16.07;;;10.33;;
10201;SDS011;5143;42.584;23.164;2023-07-24T02:37:30;15.43;;;10.80;;
10201;SDS011;5143;42.584;23.164;2023-07-24T02:39:57;17.87;;;11.40;;
10201;SDS011;5143;42.584;23.164;2023-07-24T02:42:23;18.40;;;11.43;;
10201;SDS011;5143;42.584;23.164;2023-07-24T02:44:50;19.37;;;10.70;;
10201;SDS011;5143;42.584;23.164;2023-07-24T02:47:18;20.03;;;12.33;;
10201;SDS011;5143;42.584;23.164;2023-07-24T02:49:45;19.43;;;11.30;;
10201;SDS011;5143;42.584;23.164;2023-07-24T02:52:13;17.10;;;11.17;;
10201;SDS011;5143;42.584;23.164;2023-07-24T02:54:39;17.20;;;10.93;;
10201;SDS011;5143;42.584;23.164;2023-07-24T02:57:06;18.47;;;12.37;;
10201;SDS011;5143;42.584;23.164;2023-07-24T02:59:33;22.37;;;11.67;;
10201;SDS011;5143;42.584;23.164;2023-07-24T03:02:00;17.17;;;10.67;;
10201;SDS011;5143;42.584;23.164;2023-07-24T03:04:27;16.83;;;11.10;;
10201;SDS011;5143;42.584;23.164;2023-07-24T03:06:53;21.67;;;11.37;;
10201;SDS011;5143;42.584;23.164;2023-07-24T03:09:21;18.87;;;11.70;;
10201;SDS011;5143;42.584;23.164;2023-07-24T03:11:48;18.30;;;11.97;;
10201;SDS011;5143;42.584;23.164;2023-07-24T03:14:15;17.50;;;11.37;;
10201;SDS011;5143;42.584;23.164;2023-07-24T03:16:42;18.93;;;10.80;;
10201;SDS011;5143;42.584;23.164;2023-07-24T03:19:08;35.17;;;12.83;;
10201;SDS011;5143;42.584;23.164;2023-07-24T03:21:35;22.77;;;11.40;;
10201;SDS011;5143;42.584;23.164;2023-07-24T03:24:02;19.43;;;11.57;;
10201;SDS011;5143;42.584;23.164;2023-07-24T03:26:30;22.00;;;12.13;;
10201;SDS011;5143;42.584;23.164;2023-07-24T03:28:57;26.13;;;12.10;;
10201;SDS011;5143;42.584;23.164;2023-07-24T03:31:23;22.80;;;11.37;;
10201;SDS011;5143;42.584;23.164;2023-07-24T03:33:50;19.20;;;11.20;;
10201;SDS011;5143;42.584;23.164;2023-07-24T03:36:17;22.13;;;11.37;;
10201;SDS011;5143;42.584;23.164;2023-07-24T03:38:43;27.13;;;12.37;;
10201;SDS011;5143;42.584;23.164;2023-07-24T03:41:10;18.60;;;11.50;;
10201;SDS011;5143;42.584;23.164;2023-07-24T03:43:38;20.93;;;12.07;;
10201;SDS011;5143;42.584;23.164;2023-07-24T03:46:05;18.87;;;11.70;;
10201;SDS011;5143;42.584;23.164;2023-07-24T03:48:31;18.07;;;11.53;;
10201;SDS011;5143;42.584;23.164;2023-07-24T03:51:00;21.13;;;12.30;;
10201;SDS011;5143;42.584;23.164;2023-07-24T03:53:27;23.87;;;12.20;;
10201;SDS011;5143;42.584;23.164;2023-07-24T03:55:54;29.77;;;11.90;;
10201;SDS011;5143;42.584;23.164;2023-07-24T03:58:21;24.70;;;14.00;;
10201;SDS011;5143;42.584;23.164;2023-07-24T04:00:49;19.60;;;12.20;;
10201;SDS011;5143;42.584;23.164;2023-07-24T04:03:15;23.60;;;12.27;;
10201;SDS011;5143;42.584;23.164;2023-07-24T04:05:42;21.23;;;12.13;;
10201;SDS011;5143;42.584;23.164;2023-07-24T04:08:09;22.17;;;12.77;;
10201;SDS011;5143;42.584;23.164;2023-07-24T04:10:36;20.23;;;11.43;;
10201;SDS011;5143;42.584;23.164;2023-07-24T04:13:03;20.53;;;12.30;;
10201;SDS011;5143;42.584;23.164;2023-07-24T04:15:29;20.57;;;12.53;;
10201;SDS011;5143;42.584;23.164;2023-07-24T04:17:57;24.43;;;12.10;;
10201;SDS011;5143;42.584;23.164;2023-07-24T04:20:24;20.17;;;11.13;;
10201;SDS011;5143;42.584;23.164;2023-07-24T04:22:51;26.27;;;12.77;;
10201;SDS011;5143;42.584;23.164;2023-07-24T04:25:18;21.60;;;11.83;;
10201;SDS011;5143;42.584;23.164;2023-07-24T04:27:44;23.67;;;12.10;;
10201;SDS011;5143;42.584;23.164;2023-07-24T04:30:11;32.00;;;12.90;;
10201;SDS011;5143;42.584;23.164;2023-07-24T04:32:38;23.10;;;12.10;;
10201;SDS011;5143;42.584;23.164;2023-07-24T04:35:06;34.83;;;12.50;;
10201;SDS011;5143;42.584;23.164;2023-07-24T04:37:34;21.93;;;12.20;;
10201;SDS011;5143;42.584;23.164;2023-07-24T04:40:01;21.13;;;12.30;;
10201;SDS011;5143;42.584;23.164;2023-07-24T04:42:27;21.10;;;11.27;;
10201;SDS011;5143;42.584;23.164;2023-07-24T04:44:54;22.50;;;12.10;;
10201;SDS011;5143;42.584;23.164;2023-07-24T04:47:21;20.47;;;12.13;;
10201;SDS011;5143;42.584;23.164;2023-07-24T04:49:48;20.23;;;12.37;;
10201;SDS011;5143;42.584;23.164;2023-07-24T04:52:16;27.60;;;13.63;;
10201;SDS011;5143;42.584;23.164;2023-07-24T04:54:43;18.20;;;11.83;;
10201;SDS011;5143;42.584;23.164;2023-07-24T04:57:10;17.47;;;11.90;;
10201;SDS011;5143;42.584;23.164;2023-07-24T04:59:37;21.67;;;12.27;;
10201;SDS011;5143;42.584;23.164;2023-07-24T05:02:04;17.95;;;12.65;;
10201;SDS011;5143;42.584;23.164;2023-07-24T05:04:30;18.92;;;11.65;;
10201;SDS011;5143;42.584;23.164;2023-07-24T05:06:57;19.25;;;11.85;;
10201;SDS011;5143;42.584;23.164;2023-07-24T05:09:25;17.40;;;11.23;;
10201;SDS011;5143;42.584;23.164;2023-07-24T05:11:52;16.15;;;10.73;;
10201;SDS011;5143;42.584;23.164;2023-07-24T05:14:19;19.67;;;12.10;;
10201;SDS011;5143;42.584;23.164;2023-07-24T05:16:45;17.08;;;10.88;;
10201;SDS011;5143;42.584;23.164;2023-07-24T05:19:12;12.82;;;10.02;;
10201;SDS011;5143;42.584;23.164;2023-07-24T05:21:39;23.65;;;10.85;;
10201;SDS011;5143;42.584;23.164;2023-07-24T05:24:05;16.83;;;10.65;;
10201;SDS011;5143;42.584;23.164;2023-07-24T05:26:34;18.50;;;11.05;;
10201;SDS011;5143;42.584;23.164;2023-07-24T05:29:00;19.52;;;10.82;;
10201;SDS011;5143;42.584;23.164;2023-07-24T05:31:27;12.63;;;10.45;;
10201;SDS011;5143;42.584;23.164;2023-07-24T05:33:54;19.08;;;11.35;;
10201;SDS011;5143;42.584;23.164;2023-07-24T05:36:20;20.55;;;11.52;;
10201;SDS011;5143;42.584;23.164;2023-07-24T05:38:47;14.40;;;10.27;;
10201;SDS011;5143;42.584;23.164;2023-07-24T05:41:14;13.93;;;10.40;;
10201;SDS011;5143;42.584;23.164;2023-07-24T05:43:42;16.67;;;10.18;;
10201;SDS011;5143;42.584;23.164;2023-07-24T05:46:09;13.60;;;9.93;;
10201;SDS011;5143;42.584;23.164;2023-07-24T05:48:36;12.68;;;10.27;;
10201;SDS011;5143;42.584;23.164;2023-07-24T05:51:02;13.68;;;9.93;;
10201;SDS011;5143;42.584;23.164;2023-07-24T05:53:29;12.68;;;9.95;;
10201;SDS011;5143;42.584;23.164;2023-07-24T05:55:59;11.40;;;9.07;;
10201;SDS011;5143;42.584;23.164;2023-07-24T05:58:27;12.65;;;9.55;;
10201;SDS011;5143;42.584;23.164;2023-07-24T06:00:55;12.38;;;9.60;;
10201;SDS011;5143;42.584;23.164;2023-07-24T06:03:22;13.70;;;9.35;;
10201;SDS011;5143;42.584;23.164;2023-07-24T06:05:50;12.00;;;9.25;;
10201;SDS011;5143;42.584;23.164;2023-07-24T06:08:18;13.13;;;10.60;;
10201;SDS011;5143;42.584;23.164;2023-07-24T06:10:45;11.20;;;9.73;;
10201;SDS011;5143;42.584;23.164;2023-07-24T06:13:13;23.27;;;9.90;;
10201;SDS011;5143;42.584;23.164;2023-07-24T06:15:39;12.20;;;10.02;;
10201;SDS011;5143;42.584;23.164;2023-07-24T06:18:07;12.90;;;9.23;;
10201;SDS011;5143;42.584;23.164;2023-07-24T06:20:34;10.32;;;9.23;;
10201;SDS011;5143;42.584;23.164;2023-07-24T06:23:01;11.95;;;9.50;;
10201;SDS011;5143;42.584;23.164;2023-07-24T06:25:29;16.30;;;10.20;;
10201;SDS011;5143;42.584;23.164;2023-07-24T06:27:55;11.35;;;9.50;;
10201;SDS011;5143;42.584;23.164;2023-07-24T06:30:22;12.80;;;9.18;;
10201;SDS011;5143;42.584;23.164;2023-07-24T06:32:49;13.38;;;9.48;;
10201;SDS011;5143;42.584;23.164;2023-07-24T06:35:18;11.15;;;9.35;;
10201;SDS011;5143;42.584;23.164;2023-07-24T06:37:44;11.75;;;9.00;;
10201;SDS011;5143;42.584;23.164;2023-07-24T06:40:11;14.00;;;9.15;;
10201;SDS011;5143;42.584;23.164;2023-07-24T06:42:38;18.02;;;9.05;;
10201;SDS011;5143;42.584;23.164;2023-07-24T06:45:05;11.18;;;9.00;;
10201;SDS011;5143;42.584;23.164;2023-07-24T07:04:33;12.93;;;9.70;;
10201;SDS011;5143;42.584;23.164;2023-07-24T07:06:59;14.65;;;9.75;;
10201;SDS011;5143;42.584;23.164;2023-07-24T07:09:26;13.07;;;9.27;;
10201;SDS011;5143;42.584;23.164;2023-07-24T07:11:53;16.17;;;10.35;;
10201;SDS011;5143;42.584;23.164;2023-07-24T07:14:19;18.90;;;9.40;;
10201;SDS011;5143;42.584;23.164;2023-07-24T07:16:46;11.77;;;9.68;;
10201;SDS011;5143;42.584;23.164;2023-07-24T07:19:13;12.25;;;9.32;;
10201;SDS011;5143;42.584;23.164;2023-07-24T07:21:41;19.27;;;9.25;;
10201;SDS011;5143;42.584;23.164;2023-07-24T07:24:08;22.52;;;9.55;;
10201;SDS011;5143;42.584;23.164;2023-07-24T07:26:35;20.52;;;9.80;;
10201;SDS011;5143;42.584;23.164;2023-07-24T07:29:02;15.50;;;9.68;;
10201;SDS011;5143;42.584;23.164;2023-07-24T07:31:29;16.25;;;8.65;;
10201;SDS011;5143;42.584;23.164;2023-07-24T07:33:56;20.38;;;9.32;;
10201;SDS011;5143;42.584;23.164;2023-07-24T07:36:22;14.27;;;8.57;;
10201;SDS011;5143;42.584;23.164;2023-07-24T07:38:50;23.40;;;8.60;;
10201;SDS011;5143;42.584;23.164;2023-07-24T07:41:17;14.98;;;8.80;;
10201;SDS011;5143;42.584;23.164;2023-07-24T07:43:44;21.17;;;8.18;;
10201;SDS011;5143;42.584;23.164;2023-07-24T07:46:10;15.10;;;8.02;;
10201;SDS011;5143;42.584;23.164;2023-07-24T07:48:37;13.35;;;7.78;;
10201;SDS011;5143;42.584;23.164;2023-07-24T07:51:05;12.18;;;7.55;;
10201;SDS011;5143;42.584;23.164;2023-07-24T07:53:31;14.65;;;8.35;;
10201;SDS011;5143;42.584;23.164;2023-07-24T07:55:59;15.27;;;7.80;;
10201;SDS011;5143;42.584;23.164;2023-07-24T07:58:26;6.18;;;5.32;;
10201;SDS011;5143;42.584;23.164;2023-07-24T08:00:53;13.70;;;6.18;;
10201;SDS011;5143;42.584;23.164;2023-07-24T08:03:20;7.05;;;5.07;;
10201;SDS011;5143;42.584;23.164;2023-07-24T08:05:47;15.13;;;9.80;;
10201;SDS011;5143;42.584;23.164;2023-07-24T08:08:13;13.48;;;5.82;;
10201;SDS011;5143;42.584;23.164;2023-07-24T08:10:40;13.63;;;5.60;;
10201;SDS011;5143;42.584;23.164;2023-07-24T08:13:08;14.98;;;6.15;;
10201;SDS011;5143;42.584;23.164;2023-07-24T08:15:35;15.35;;;6.28;;
10201;SDS011;5143;42.584;23.164;2023-07-24T08:18:02;9.35;;;6.72;;
10201;SDS011;5143;42.584;23.164;2023-07-24T08:20:29;15.27;;;7.30;;
10201;SDS011;5143;42.584;23.164;2023-07-24T08:22:56;9.07;;;7.28;;
10201;SDS011;5143;42.584;23.164;2023-07-24T08:25:23;18.08;;;7.65;;
10201;SDS011;5143;42.584;23.164;2023-07-24T08:27:49;12.75;;;7.40;;
10201;SDS011;5143;42.584;23.164;2023-07-24T08:30:18;13.65;;;7.50;;
10201;SDS011;5143;42.584;23.164;2023-07-24T08:32:45;16.60;;;7.65;;
10201;SDS011;5143;42.584;23.164;2023-07-24T08:35:12;12.18;;;7.53;;
10201;SDS011;5143;42.584;23.164;2023-07-24T08:37:42;11.98;;;7.40;;
10201;SDS011;5143;42.584;23.164;2023-07-24T08:40:09;14.65;;;7.82;;
10201;SDS011;5143;42.584;23.164;2023-07-24T08:42:38;10.35;;;7.82;;
10201;SDS011;5143;42.584;23.164;2023-07-24T08:45:08;10.25;;;7.47;;
10201;SDS011;5143;42.584;23.164;2023-07-24T08:47:39;10.43;;;7.47;;
10201;SDS011;5143;42.584;23.164;2023-07-24T08:50:09;12.55;;;6.97;;
10201;SDS011;5143;42.584;23.164;2023-07-24T08:52:37;17.00;;;7.50;;
10201;SDS011;5143;42.584;23.164;2023-07-24T08:55:05;13.57;;;7.63;;
10201;SDS011;5143;42.584;23.164;2023-07-24T08:57:32;12.63;;;7.60;;
10201;SDS011;5143;42.584;23.164;2023-07-24T08:59:59;11.32;;;7.35;;
10201;SDS011;5143;42.584;23.164;2023-07-24T09:02:29;11.27;;;7.18;;
10201;SDS011;5143;42.584;23.164;2023-07-24T09:04:58;12.85;;;7.65;;
10201;SDS011;5143;42.584;23.164;2023-07-24T09:07:25;16.90;;;7.72;;
10201;SDS011;5143;42.584;23.164;2023-07-24T09:09:51;14.82;;;7.07;;
10201;SDS011;5143;42.584;23.164;2023-07-24T09:12:18;17.35;;;7.65;;
10201;SDS011;5143;42.584;23.164;2023-07-24T09:14:45;13.15;;;6.95;;
10201;SDS011;5143;42.584;23.164;2023-07-24T09:17:12;16.08;;;7.28;;
10201;SDS011;5143;42.584;23.164;2023-07-24T09:19:38;15.65;;;7.15;;
10201;SDS011;5143;42.584;23.164;2023-07-24T09:22:10;11.77;;;6.47;;
10201;SDS011;5143;42.584;23.164;2023-07-24T09:24:48;11.32;;;7.30;;
10201;SDS011;5143;42.584;23.164;2023-07-24T09:27:16;10.70;;;6.88;;
10201;SDS011;5143;42.584;23.164;2023-07-24T09:29:43;18.13;;;6.40;;
10201;SDS011;5143;42.584;23.164;2023-07-24T09:32:18;21.77;;;7.78;;
10201;SDS011;5143;42.584;23.164;2023-07-24T09:34:45;17.55;;;7.70;;
10201;SDS011;5143;42.584;23.164;2023-07-24T09:37:23;12.50;;;6.75;;
10201;SDS011;5143;42.584;23.164;2023-07-24T09:39:51;12.88;;;6.03;;
10201;SDS011;5143;42.584;23.164;2023-07-24T09:42:18;10.10;;;6.45;;
10201;SDS011;5143;42.584;23.164;2023-07-24T09:44:44;16.08;;;6.15;;
10201;SDS011;5143;42.584;23.164;2023-07-24T09:47:11;15.23;;;6.45;;
10201;SDS011;5143;42.584;23.164;2023-07-24T09:49:38;12.50;;;5.80;;
10201;SDS011;5143;42.584;23.164;2023-07-24T09:52:06;11.15;;;5.93;;
10201;SDS011;5143;42.584;23.164;2023-07-24T09:54:39;11.57;;;6.00;;
10201;SDS011;5143;42.584;23.164;2023-07-24T09:57:12;8.50;;;6.07;;
10201;SDS011;5143;42.584;23.164;2023-07-24T09:59:40;14.70;;;5.90;;
10201;SDS011;5143;42.584;23.164;2023-07-24T10:02:08;12.13;;;6.15;;
10201;SDS011;5143;42.584;23.164;2023-07-24T10:04:38;12.25;;;6.25;;
10201;SDS011;5143;42.584;23.164;2023-07-24T10:07:06;10.65;;;6.22;;
10201;SDS011;5143;42.584;23.164;2023-07-24T10:09:33;14.23;;;6.40;;
10201;SDS011;5143;42.584;23.164;2023-07-24T10:12:01;12.23;;;6.63;;
10201;SDS011;5143;42.584;23.164;2023-07-24T10:14:29;9.48;;;5.72;;
10201;SDS011;5143;42.584;23.164;2023-07-24T10:16:57;9.93;;;5.72;;
10201;SDS011;5143;42.584;23.164;2023-07-24T10:19:23;11.05;;;6.18;;
10201;SDS011;5143;42.584;23.164;2023-07-24T10:21:51;12.27;;;5.78;;
10201;SDS011;5143;42.584;23.164;2023-07-24T10:24:18;9.68;;;5.53;;
10201;SDS011;5143;42.584;23.164;2023-07-24T10:26:48;16.00;;;5.75;;
10201;SDS011;5143;42.584;23.164;2023-07-24T10:29:17;14.45;;;5.35;;
10201;SDS011;5143;42.584;23.164;2023-07-24T10:31:51;8.73;;;4.97;;
10201;SDS011;5143;42.584;23.164;2023-07-24T10:34:19;15.35;;;6.30;;
10201;SDS011;5143;42.584;23.164;2023-07-24T10:36:46;14.18;;;6.18;;
10201;SDS011;5143;42.584;23.164;2023-07-24T10:39:13;15.70;;;5.57;;
10201;SDS011;5143;42.584;23.164;2023-07-24T10:41:41;14.05;;;5.93;;
10201;SDS011;5143;42.584;23.164;2023-07-24T10:44:10;10.15;;;5.30;;
10201;SDS011;5143;42.584;23.164;2023-07-24T10:46:38;11.00;;;5.70;;
10201;SDS011;5143;42.584;23.164;2023-07-24T10:49:07;9.38;;;5.60;;
10201;SDS011;5143;42.584;23.164;2023-07-24T10:51:34;19.20;;;6.07;;
10201;SDS011;5143;42.584;23.164;2023-07-24T10:54:03;8.80;;;5.43;;
10201;SDS011;5143;42.584;23.164;2023-07-24T10:56:30;12.45;;;5.65;;
10201;SDS011;5143;42.584;23.164;2023-07-24T10:59:01;12.68;;;5.63;;
10201;SDS011;5143;42.584;23.164;2023-07-24T11:01:29;12.10;;;6.30;;
10201;SDS011;5143;42.584;23.164;2023-07-24T11:03:58;15.88;;;6.38;;
10201;SDS011;5143;42.584;23.164;2023-07-24T11:06:25;10.55;;;5.47;;
10201;SDS011;5143;42.584;23.164;2023-07-24T11:08:53;18.42;;;5.72;;
10201;SDS011;5143;42.584;23.164;2023-07-24T11:11:22;10.75;;;5.15;;
10201;SDS011;5143;42.584;23.164;2023-07-24T11:13:53;14.27;;;5.93;;
10201;SDS011;5143;42.584;23.164;2023-07-24T11:16:20;11.75;;;5.90;;
10201;SDS011;5143;42.584;23.164;2023-07-24T11:18:48;12.48;;;5.70;;
10201;SDS011;5143;42.584;23.164;2023-07-24T11:21:18;13.52;;;5.60;;
10201;SDS011;5143;42.584;23.164;2023-07-24T11:23:46;13.70;;;5.57;;
10201;SDS011;5143;42.584;23.164;2023-07-24T11:26:13;12.27;;;5.30;;
10201;SDS011;5143;42.584;23.164;2023-07-24T11:28:41;11.63;;;5.68;;
10201;SDS011;5143;42.584;23.164;2023-07-24T11:31:08;12.05;;;5.82;;
10201;SDS011;5143;42.584;23.164;2023-07-24T11:33:36;10.82;;;5.75;;
10201;SDS011;5143;42.584;23.164;2023-07-24T11:36:04;11.43;;;5.13;;
10201;SDS011;5143;42.584;23.164;2023-07-24T11:38:32;9.88;;;5.55;;
10201;SDS011;5143;42.584;23.164;2023-07-24T11:40:59;10.55;;;6.05;;
10201;SDS011;5143;42.584;23.164;2023-07-24T11:43:26;8.35;;;5.38;;
10201;SDS011;5143;42.584;23.164;2023-07-24T11:45:52;12.88;;;5.40;;
10201;SDS011;5143;42.584;23.164;2023-07-24T11:48:21;12.68;;;5.95;;
10201;SDS011;5143;42.584;23.164;2023-07-24T11:50:51;14.93;;;5.88;;
10201;SDS011;5143;42.584;23.164;2023-07-24T11:53:22;12.88;;;5.35;;
10201;SDS011;5143;42.584;23.164;2023-07-24T11:55:52;15.95;;;7.25;;
10201;SDS011;5143;42.584;23.164;2023-07-24T11:58:20;12.43;;;5.70;;
10201;SDS011;5143;42.584;23.164;2023-07-24T12:00:48;11.95;;;6.28;;
10201;SDS011;5143;42.584;23.164;2023-07-24T12:03:18;12.48;;;5.43;;
10201;SDS011;5143;42.584;23.164;2023-07-24T12:05:46;12.70;;;6.35;;
10201;SDS011;5143;42.584;23.164;2023-07-24T12:08:12;12.38;;;5.78;;
10201;SDS011;5143;42.584;23.164;2023-07-24T12:10:40;13.82;;;6.47;;
10201;SDS011;5143;42.584;23.164;2023-07-24T12:13:08;11.13;;;5.50;;
10201;SDS011;5143;42.584;23.164;2023-07-24T12:15:36;15.77;;;6.18;;
10201;SDS011;5143;42.584;23.164;2023-07-24T12:18:03;9.35;;;5.85;;
10201;SDS011;5143;42.584;23.164;2023-07-24T12:20:30;10.15;;;5.75;;
10201;SDS011;5143;42.584;23.164;2023-07-24T12:22:57;9.00;;;6.10;;
10201;SDS011;5143;42.584;23.164;2023-07-24T12:25:24;14.05;;;5.88;;
10201;SDS011;5143;42.584;23.164;2023-07-24T12:27:51;13.15;;;6.47;;
10201;SDS011;5143;42.584;23.164;2023-07-24T12:30:19;12.32;;;6.07;;
10201;SDS011;5143;42.584;23.164;2023-07-24T12:32:46;12.63;;;5.60;;
10201;SDS011;5143;42.584;23.164;2023-07-24T12:35:13;12.43;;;5.85;;
10201;SDS011;5143;42.584;23.164;2023-07-24T12:37:39;12.43;;;5.90;;
10201;SDS011;5143;42.584;23.164;2023-07-24T12:40:07;10.63;;;5.70;;
10201;SDS011;5143;42.584;23.164;2023-07-24T12:42:34;12.07;;;5.80;;
10201;SDS011;5143;42.584;23.164;2023-07-24T12:45:01;9.95;;;5.47;;
10201;SDS011;5143;42.584;23.164;2023-07-24T12:47:30;8.82;;;6.15;;
10201;SDS011;5143;42.584;23.164;2023-07-24T12:49:57;12.60;;;6.22;;
10201;SDS011;5143;42.584;23.164;2023-07-24T12:52:24;11.20;;;5.50;;
10201;SDS011;5143;42.584;23.164;2023-07-24T12:54:52;12.00;;;5.57;;
10201;SDS011;5143;42.584;23.164;2023-07-24T12:57:19;13.75;;;6.32;;
10201;SDS011;5143;42.584;23.164;2023-07-24T12:59:46;8.35;;;5.88;;
10201;SDS011;5143;42.584;23.164;2023-07-24T13:02:12;9.90;;;6.03;;
10201;SDS011;5143;42.584;23.164;2023-07-24T13:04:41;10.48;;;5.85;;
10201;SDS011;5143;42.584;23.164;2023-07-24T13:07:08;9.70;;;5.75;;
10201;SDS011;5143;42.584;23.164;2023-07-24T13:09:35;20.92;;;6.60;;
10201;SDS011;5143;42.584;23.164;2023-07-24T13:12:02;10.95;;;5.95;;
10201;SDS011;5143;42.584;23.164;2023-07-24T13:14:28;10.27;;;6.03;;
10201;SDS011;5143;42.584;23.164;2023-07-24T13:16:55;8.60;;;6.03;;
10201;SDS011;5143;42.584;23.164;2023-07-24T13:19:22;11.02;;;5.70;;
10201;SDS011;5143;42.584;23.164;2023-07-24T13:21:50;8.40;;;6.15;;
10201;SDS011;5143;42.584;23.164;2023-07-24T13:24:17;10.25;;;5.95;;
10201;SDS011;5143;42.584;23.164;2023-07-24T13:26:44;11.32;;;5.95;;
10201;SDS011;5143;42.584;23.164;2023-07-24T13:29:11;16.60;;;6.72;;
10201;SDS011;5143;42.584;23.164;2023-07-24T13:31:38;11.75;;;6.35;;
10201;SDS011;5143;42.584;23.164;2023-07-24T13:34:06;14.68;;;6.88;;
10201;SDS011;5143;42.584;23.164;2023-07-24T13:36:33;10.82;;;6.93;;
10201;SDS011;5143;42.584;23.164;2023-07-24T13:39:01;9.85;;;6.28;;
10201;SDS011;5143;42.584;23.164;2023-07-24T13:41:28;8.68;;;6.05;;
10201;SDS011;5143;42.584;23.164;2023-07-24T13:43:55;10.50;;;6.20;;
10201;SDS011;5143;42.584;23.164;2023-07-24T13:46:22;6.45;;;5.65;;
10201;SDS011;5143;42.584;23.164;2023-07-24T13:48:49;7.65;;;5.65;;
10201;SDS011;5143;42.584;23.164;2023-07-24T13:51:15;11.02;;;6.85;;
10201;SDS011;5143;42.584;23.164;2023-07-24T13:53:42;8.68;;;6.38;;
10201;SDS011;5143;42.584;23.164;2023-07-24T13:56:12;13.20;;;8.52;;
10201;SDS011;5143;42.584;23.164;2023-07-24T13:58:39;7.70;;;6.28;;
10201;SDS011;5143;42.584;23.164;2023-07-24T14:01:06;8.68;;;6.28;;
10201;SDS011;5143;42.584;23.164;2023-07-24T14:03:33;8.60;;;6.22;;
10201;SDS011;5143;42.584;23.164;2023-07-24T14:05:59;10.80;;;6.32;;
10201;SDS011;5143;42.584;23.164;2023-07-24T14:08:26;10.98;;;6.20;;
10201;SDS011;5143;42.584;23.164;2023-07-24T14:10:53;7.18;;;6.13;;
10201;SDS011;5143;42.584;23.164;2023-07-24T14:13:21;10.73;;;6.75;;
10201;SDS011;5143;42.584;23.164;2023-07-24T14:15:48;12.43;;;6.78;;
10201;SDS011;5143;42.584;23.164;2023-07-24T14:18:15;7.53;;;5.85;;
10201;SDS011;5143;42.584;23.164;2023-07-24T14:20:42;14.13;;;7.20;;
10201;SDS011;5143;42.584;23.164;2023-07-24T14:23:08;10.27;;;7.05;;
10201;SDS011;5143;42.584;23.164;2023-07-24T14:25:35;9.00;;;6.90;;
10201;SDS011;5143;42.584;23.164;2023-07-24T14:28:02;14.57;;;6.90;;
10201;SDS011;5143;42.584;23.164;2023-07-24T14:30:30;10.32;;;7.13;;
10201;SDS011;5143;42.584;23.164;2023-07-24T14:32:57;11.13;;;6.22;;
10201;SDS011;5143;42.584;23.164;2023-07-24T14:35:24;10.23;;;6.38;;
10201;SDS011;5143;42.584;23.164;2023-07-24T14:37:51;10.70;;;6.45;;
10201;SDS011;5143;42.584;23.164;2023-07-24T14:40:18;9.73;;;6.60;;
10201;SDS011;5143;42.584;23.164;2023-07-24T14:42:45;9.95;;;7.32;;
10201;SDS011;5143;42.584;23.164;2023-07-24T14:45:12;13.15;;;7.20;;
10201;SDS011;5143;42.584;23.164;2023-07-24T14:47:40;10.02;;;7.07;;
10201;SDS011;5143;42.584;23.164;2023-07-24T14:50:07;11.93;;;6.72;;